Time;durP1;ratioP1;P1;durP2;ratioP2;P2;SDS_P1;SDS_P2;PMS_P1;PMS_P2;Temp;Humidity;BMP_temperature;BMP_pressure;BME280_temperature;BME280_humidity;BME280_pressure;Samples;Min_cycle;Max_cycle;Signal;HPM_P1;HPM_P2
2023/05/18 00:01:16;;;;;;;11.00;2.30;;;;;;;8.52;78.03;101228.29;102822;276;98392;-56
2023/05/18 00:03:54;;;;;;;15.80;3.90;;;;;;;8.50;78.35;101225.98;102838;276;121301;-54
2023/05/18 00:06:30;;;;;;;11.10;2.60;;;;;;;8.50;78.23;101224.88;102818;276;105534;-54
2023/05/18 00:09:14;;;;;;;10.90;2.30;;;;;;;8.48;78.24;101225.45;102743;276;114866;-54
2023/05/18 00:11:51;;;;;;;8.20;2.30;;;;;;;8.49;78.35;101232.62;102729;276;95547;-53
2023/05/18 00:14:34;;;;;;;7.20;2.50;;;;;;;8.44;78.33;101231.23;102838;276;96816;-53
2023/05/18 00:17:17;;;;;;;11.00;2.60;;;;;;;8.39;78.43;101234.76;102743;276;119701;-53
2023/05/18 00:19:59;;;;;;;12.00;2.40;;;;;;;8.41;78.48;101234.95;102828;276;104957;-54
2023/05/18 00:22:41;;;;;;;7.80;2.40;;;;;;;8.38;78.47;101237.23;102760;276;114860;-54
2023/05/18 00:25:20;;;;;;;7.80;2.50;;;;;;;8.37;78.56;101240.70;102754;276;94162;-54
2023/05/18 00:27:54;;;;;;;7.80;2.20;;;;;;;8.37;78.66;101241.98;102778;276;96785;-54
2023/05/18 00:30:30;;;;;;;10.30;2.70;;;;;;;8.33;78.55;101239.30;102550;276;121296;-53
2023/05/18 00:33:09;;;;;;;7.00;2.50;;;;;;;8.27;78.59;101241.33;102820;276;104218;-54
2023/05/18 00:35:47;;;;;;;14.60;4.60;;;;;;;8.25;78.84;101242.06;102501;277;114621;-53
2023/05/18 00:38:25;;;;;;;11.90;4.60;;;;;;;8.20;78.71;101244.56;102783;276;96435;-54
2023/05/18 00:41:06;;;;;;;11.30;3.90;;;;;;;8.18;78.76;101244.62;102808;276;97460;-57
2023/05/18 00:43:48;;;;;;;7.90;3.10;;;;;;;8.19;78.91;101248.22;102734;276;119908;-54
2023/05/18 00:46:28;;;;;;;9.00;2.50;;;;;;;8.18;78.98;101250.54;102784;276;105333;-52
2023/05/18 00:49:15;;;;;;;10.70;3.20;;;;;;;8.16;79.21;101248.23;102786;276;115755;-57
2023/05/18 00:51:57;;;;;;;10.60;2.70;;;;;;;8.10;79.26;101245.58;102732;276;96395;-56
2023/05/18 00:54:33;;;;;;;8.80;2.90;;;;;;;8.05;79.25;101251.44;102809;276;97357;-56
2023/05/18 00:57:11;;;;;;;7.30;2.90;;;;;;;8.03;79.51;101253.84;102783;276;121204;-55
2023/05/18 00:59:50;;;;;;;11.70;3.10;;;;;;;7.96;79.48;101259.55;102789;300;106057;-55
2023/05/18 01:02:28;;;;;;;7.10;2.00;;;;;;;7.92;79.57;101264.11;102780;276;114290;-56
2023/05/18 01:05:06;;;;;;;8.10;2.30;;;;;;;7.88;79.68;101265.04;102805;276;93927;-52
2023/05/18 01:07:43;;;;;;;6.20;2.00;;;;;;;7.81;79.70;101265.67;102857;276;96692;-53
2023/05/18 01:10:24;;;;;;;12.70;3.50;;;;;;;7.72;79.84;101265.70;102849;276;120251;-56
2023/05/18 01:13:14;;;;;;;9.50;4.20;;;;;;;7.65;79.90;101268.66;102871;276;103808;-55
2023/05/18 01:15:56;;;;;;;10.30;4.50;;;;;;;7.59;79.91;101265.67;102857;276;113676;-53
2023/05/18 01:18:47;;;;;;;10.70;4.10;;;;;;;7.51;79.92;101269.53;102894;276;96173;-53
2023/05/18 01:21:56;;;;;;;9.90;3.20;;;;;;;7.46;80.08;101268.09;102832;276;97001;-52
2023/05/18 01:24:43;;;;;;;8.20;3.20;;;;;;;7.43;80.48;101272.54;102797;276;120449;-56
2023/05/18 01:27:23;;;;;;;12.50;2.70;;;;;;;7.44;80.59;101270.98;102777;276;103879;-57
2023/05/18 01:30:03;;;;;;;7.60;2.80;;;;;;;7.40;80.68;101273.71;102770;276;114178;-53
2023/05/18 01:32:45;;;;;;;9.20;2.30;;;;;;;7.36;80.72;101272.80;102688;277;93622;-52
2023/05/18 01:35:29;;;;;;;8.20;2.20;;;;;;;7.30;80.93;101276.29;102767;276;98210;-53
2023/05/18 01:38:08;;;;;;;5.60;2.10;;;;;;;7.19;80.93;101275.40;102773;276;120016;-53
2023/05/18 01:40:54;;;;;;;5.40;1.80;;;;;;;7.11;81.09;101280.66;102775;276;105420;-53
2023/05/18 01:43:38;;;;;;;9.20;2.50;;;;;;;7.05;81.10;101282.98;102722;265;114091;-52
2023/05/18 01:46:25;;;;;;;9.90;2.30;;;;;;;6.98;81.35;101281.29;102735;276;96416;-54
2023/05/18 01:49:14;;;;;;;7.80;2.40;;;;;;;6.95;81.23;101277.86;102768;276;98172;-55
2023/05/18 01:51:54;;;;;;;5.60;1.90;;;;;;;6.88;81.38;101280.71;102720;276;119360;-56
2023/05/18 01:54:37;;;;;;;9.70;2.40;;;;;;;6.82;81.49;101276.40;102720;276;105247;-56
2023/05/18 01:57:22;;;;;;;9.00;2.90;;;;;;;6.82;81.62;101275.88;102720;276;113639;-56
2023/05/18 02:00:06;;;;;;;8.00;2.20;;;;;;;6.80;81.82;101273.96;102748;276;92921;-53
2023/05/18 02:02:48;;;;;;;4.90;1.70;;;;;;;6.79;81.93;101277.21;102733;276;97494;-53
2023/05/18 02:05:25;;;;;;;8.50;2.20;;;;;;;6.77;82.05;101277.77;102738;276;120364;-53
2023/05/18 02:08:09;;;;;;;6.10;2.60;;;;;;;6.71;82.27;101283.37;102762;276;105047;-52
2023/05/18 02:10:48;;;;;;;8.50;2.00;;;;;;;6.62;82.38;101293.40;102765;276;113897;-52
2023/05/18 02:13:26;;;;;;;8.40;3.20;;;;;;;6.55;82.21;101298.27;102773;276;96057;-52
2023/05/18 02:16:09;;;;;;;7.90;3.60;;;;;;;6.50;82.48;101300.32;102783;276;96807;-56
2023/05/18 02:18:50;;;;;;;10.10;4.30;;;;;;;6.43;82.34;101302.92;102773;264;120137;-53
2023/05/18 02:21:33;;;;;;;8.80;3.40;;;;;;;6.36;82.38;101305.03;102823;276;104377;-52
2023/05/18 02:24:11;;;;;;;10.10;3.20;;;;;;;6.28;82.55;101304.84;102811;276;114696;-55
2023/05/18 02:26:49;;;;;;;5.10;2.30;;;;;;;6.23;82.68;101305.48;102759;276;95589;-55
2023/05/18 02:29:32;;;;;;;7.70;2.60;;;;;;;6.15;82.73;101308.10;102605;277;97863;-55
2023/05/18 02:32:11;;;;;;;5.60;2.50;;;;;;;6.09;82.94;101305.59;102750;276;120379;-56
2023/05/18 02:34:51;;;;;;;7.10;2.20;;;;;;;6.07;83.12;101305.02;102651;276;106284;-52
2023/05/18 02:37:33;;;;;;;6.30;2.10;;;;;;;6.03;83.18;101303.23;102775;276;113687;-53
2023/05/18 02:40:12;;;;;;;9.70;2.40;;;;;;;5.96;83.32;101309.29;102542;276;93153;-55
2023/05/18 02:42:51;;;;;;;7.30;3.60;;;;;;;5.88;83.38;101310.85;102763;276;95533;-55
2023/05/18 02:45:25;;;;;;;7.10;2.30;;;;;;;5.79;83.45;101312.70;102646;276;119846;-52
2023/05/18 02:48:01;;;;;;;9.30;2.30;;;;;;;5.72;83.71;101318.52;102682;276;106111;-52
2023/05/18 02:50:42;;;;;;;8.50;2.20;;;;;;;5.70;83.89;101318.38;102719;276;114840;-55
2023/05/18 02:53:25;;;;;;;7.70;2.20;;;;;;;5.65;84.06;101316.16;102706;276;95920;-56
2023/05/18 02:56:04;;;;;;;7.20;1.80;;;;;;;5.59;84.28;101319.33;102748;276;97396;-55
2023/05/18 02:58:43;;;;;;;6.10;1.80;;;;;;;5.58;84.23;101319.06;102769;276;121085;-53
2023/05/18 03:01:27;;;;;;;7.00;1.80;;;;;;;5.55;84.50;101320.84;102744;276;105527;-53
2023/05/18 03:04:05;;;;;;;8.50;1.90;;;;;;;5.56;84.74;101321.73;102720;276;112973;-53
2023/05/18 03:06:42;;;;;;;10.50;2.60;;;;;;;5.56;84.78;101329.13;102740;276;97099;-52
2023/05/18 03:09:18;;;;;;;7.20;1.90;;;;;;;5.56;84.88;101328.78;102769;265;96288;-51
2023/05/18 03:11:54;;;;;;;5.70;1.90;;;;;;;5.57;85.07;101333.51;102726;276;120407;-52
2023/05/18 03:14:35;;;;;;;5.00;2.30;;;;;;;5.61;85.32;101334.36;102722;276;105163;-55
2023/05/18 03:17:22;;;;;;;4.30;1.70;;;;;;;5.61;85.20;101337.21;102712;276;114372;-56
2023/05/18 03:20:03;;;;;;;4.10;1.40;;;;;;;5.68;85.47;101337.10;102528;276;96467;-55
2023/05/18 03:22:43;;;;;;;7.40;2.40;;;;;;;5.72;85.43;101343.36;102773;276;96894;-56
2023/05/18 03:25:19;;;;;;;8.00;2.50;;;;;;;5.76;85.29;101346.08;102787;276;121374;-52
2023/05/18 03:28:07;;;;;;;8.70;3.30;;;;;;;5.83;85.47;101348.31;102625;276;106320;-52
2023/05/18 03:30:46;;;;;;;9.90;3.60;;;;;;;5.88;85.39;101352.30;102585;276;114777;-55
2023/05/18 03:33:27;;;;;;;11.00;4.00;;;;;;;5.90;85.45;101354.66;102833;276;94900;-55
2023/05/18 03:36:15;;;;;;;10.80;4.40;;;;;;;5.95;85.43;101352.42;102816;276;96488;-53
2023/05/18 03:38:58;;;;;;;9.20;3.70;;;;;;;6.00;85.53;101358.78;102822;276;121663;-54
2023/05/18 03:41:36;;;;;;;12.00;4.00;;;;;;;6.09;85.71;101361.19;102759;276;104815;-56
2023/05/18 03:44:18;;;;;;;7.50;3.40;;;;;;;6.18;85.84;101361.27;102810;276;114041;-53
2023/05/18 03:47:01;;;;;;;9.60;3.20;;;;;;;6.32;85.86;101362.64;102781;276;95096;-52
2023/05/18 03:49:46;;;;;;;9.50;2.90;;;;;;;6.47;85.90;101369.31;102791;276;97769;-56
2023/05/18 03:52:29;;;;;;;7.70;2.50;;;;;;;6.62;85.91;101371.70;102790;276;120759;-56
2023/05/18 03:55:10;;;;;;;7.90;2.50;;;;;;;6.77;85.99;101375.49;102775;276;105421;-56
2023/05/18 03:57:45;;;;;;;9.40;2.50;;;;;;;6.89;85.96;101381.38;102770;276;113845;-56
2023/05/18 04:00:21;;;;;;;11.20;3.40;;;;;;;6.96;85.78;101378.19;102775;276;93662;-56
2023/05/18 04:02:59;;;;;;;10.40;4.50;;;;;;;7.03;85.69;101378.77;102742;276;98045;-55
2023/05/18 04:05:42;;;;;;;11.30;3.40;;;;;;;7.16;85.58;101379.94;102615;277;119946;-52
2023/05/18 04:08:25;;;;;;;9.60;3.70;;;;;;;7.19;85.38;101377.83;102779;276;105417;-53
2023/05/18 04:11:05;;;;;;;10.90;2.40;;;;;;;7.20;85.18;101380.95;102762;276;114020;-52
2023/05/18 04:13:42;;;;;;;10.10;2.50;;;;;;;7.22;85.23;101383.81;102777;276;96392;-56
2023/05/18 04:16:27;;;;;;;10.40;2.70;;;;;;;7.27;85.13;101384.36;102754;276;97674;-56
2023/05/18 04:19:09;;;;;;;10.10;2.40;;;;;;;7.31;85.07;101379.89;102799;276;119698;-53
2023/05/18 04:21:53;;;;;;;7.30;2.40;;;;;;;7.41;85.19;101385.97;102784;276;105465;-53
2023/05/18 04:24:36;;;;;;;5.70;2.30;;;;;;;7.44;84.99;101390.31;102792;276;114146;-53
2023/05/18 04:27:11;;;;;;;9.60;2.60;;;;;;;7.50;84.88;101387.61;102776;276;95427;-53
2023/05/18 04:29:51;;;;;;;5.90;2.00;;;;;;;7.55;84.88;101395.03;102810;276;98058;-56
2023/05/18 04:32:35;;;;;;;14.60;2.70;;;;;;;7.63;84.61;101396.73;102851;276;119525;-64
2023/05/18 04:35:18;;;;;;;8.70;2.00;;;;;;;7.75;84.51;101397.35;102833;276;104602;-52
2023/05/18 04:37:59;;;;;;;10.80;3.10;;;;;;;7.86;84.23;101401.36;102819;268;114016;-52
2023/05/18 04:40:37;;;;;;;8.90;3.10;;;;;;;7.95;84.22;101401.75;102820;276;94620;-56
2023/05/18 04:43:24;;;;;;;7.40;2.10;;;;;;;8.02;83.86;101403.03;102858;276;96670;-56
2023/05/18 04:46:05;;;;;;;6.70;3.10;;;;;;;8.16;83.73;101406.14;102855;276;119366;-57
2023/05/18 04:48:48;;;;;;;10.70;2.50;;;;;;;8.26;83.55;101403.55;102791;276;105901;-56
2023/05/18 04:51:26;;;;;;;6.60;2.10;;;;;;;8.30;83.32;101406.74;102745;276;112872;-57
2023/05/18 04:54:05;;;;;;;6.20;2.10;;;;;;;8.40;83.07;101402.89;102764;276;96888;-51
2023/05/18 04:56:46;;;;;;;8.40;2.80;;;;;;;8.50;82.87;101410.31;102792;276;97957;-53
2023/05/18 04:59:35;;;;;;;5.60;2.10;;;;;;;8.62;82.68;101411.39;102814;276;120086;-53
2023/05/18 05:02:14;;;;;;;12.00;3.50;;;;;;;8.70;82.53;101412.22;102842;276;104855;-53
2023/05/18 05:04:50;;;;;;;6.50;2.20;;;;;;;8.77;82.31;101411.45;102812;276;114726;-53
2023/05/18 05:07:30;;;;;;;7.90;2.50;;;;;;;8.81;82.16;101413.46;102829;276;95591;-53
2023/05/18 05:10:10;;;;;;;4.80;1.80;;;;;;;8.86;81.95;101414.58;102837;276;96936;-56
2023/05/18 05:12:48;;;;;;;7.60;2.30;;;;;;;8.88;81.70;101415.23;102875;276;118671;-55
2023/05/18 05:15:25;;;;;;;7.80;2.20;;;;;;;8.97;81.42;101414.77;102798;276;104471;-56
2023/05/18 05:18:00;;;;;;;7.80;2.20;;;;;;;9.14;81.22;101416.07;102568;276;115777;-56
2023/05/18 05:20:38;;;;;;;7.70;1.90;;;;;;;9.19;80.86;101414.50;102804;276;95192;-53
2023/05/18 05:23:17;;;;;;;7.70;2.10;;;;;;;9.24;80.93;101417.64;102848;264;97560;-53
2023/05/18 05:26:00;;;;;;;7.10;2.30;;;;;;;9.43;80.51;101418.23;102804;276;120433;-56
2023/05/18 05:28:40;;;;;;;7.60;2.10;;;;;;;9.61;80.24;101424.30;102745;276;107518;-55
2023/05/18 05:31:18;;;;;;;7.10;2.40;;;;;;;9.70;79.85;101421.23;102740;276;113862;-57
2023/05/18 05:33:58;;;;;;;5.70;2.50;;;;;;;9.77;79.49;101423.73;102757;276;94503;-57
2023/05/18 05:36:38;;;;;;;10.80;2.30;;;;;;;9.92;79.39;101421.53;102818;276;97472;-57
2023/05/18 05:39:17;;;;;;;8.40;2.40;;;;;;;10.08;79.36;101427.08;102778;276;119629;-53
2023/05/18 05:41:52;;;;;;;6.60;2.10;;;;;;;10.36;79.22;101429.37;102779;276;104203;-52
2023/05/18 05:44:35;;;;;;;7.40;2.10;;;;;;;10.49;79.22;101434.92;102767;276;111945;-56
2023/05/18 05:47:26;;;;;;;7.90;2.10;;;;;;;10.62;78.92;101431.00;102743;276;97174;-56
2023/05/18 05:50:03;;;;;;;6.00;2.40;;;;;;;10.76;78.18;101436.15;102167;277;99119;-57
2023/05/18 05:52:51;;;;;;;5.00;1.90;;;;;;;10.89;78.14;101435.06;102783;276;120734;-56
2023/05/18 05:55:28;;;;;;;6.40;2.50;;;;;;;11.14;77.41;101439.90;102811;276;103978;-53
2023/05/18 05:58:08;;;;;;;6.90;2.20;;;;;;;11.29;77.28;101438.05;102786;276;113494;-53
2023/05/18 06:00:49;;;;;;;5.00;1.70;;;;;;;11.39;76.92;101439.65;102767;276;94266;-52
2023/05/18 06:03:44;;;;;;;6.20;1.80;;;;;;;11.52;76.57;101439.52;102822;276;97995;-53
2023/05/18 06:06:27;;;;;;;5.00;1.50;;;;;;;11.74;76.01;101442.98;102747;276;120618;-56
2023/05/18 06:09:07;;;;;;;7.80;1.90;;;;;;;11.93;75.67;101433.59;102758;276;103502;-57
2023/05/18 06:11:53;;;;;;;6.40;2.00;;;;;;;12.26;75.30;101436.64;102694;276;113320;-57
2023/05/18 06:14:37;;;;;;;5.20;2.10;;;;;;;12.55;74.81;101436.35;102737;276;94141;-52
2023/05/18 06:17:13;;;;;;;7.10;1.30;;;;;;;12.83;74.01;101438.30;102808;276;97602;-53
2023/05/18 06:19:56;;;;;;;6.10;1.80;;;;;;;12.91;73.26;101440.86;102760;276;120451;-52
2023/05/18 06:22:34;;;;;;;4.30;1.30;;;;;;;12.76;71.29;101438.40;102773;276;105952;-53
2023/05/18 06:25:09;;;;;;;4.90;1.50;;;;;;;12.68;71.80;101437.77;102758;276;114396;-52
2023/05/18 06:27:49;;;;;;;7.10;1.40;;;;;;;12.86;71.33;101439.94;102745;276;94816;-51
2023/05/18 06:30:33;;;;;;;5.70;1.40;;;;;;;12.88;71.02;101439.64;102786;276;97934;-53
2023/05/18 06:33:14;;;;;;;4.30;1.30;;;;;;;13.06;70.65;101441.80;102700;276;120170;-53
2023/05/18 06:35:57;;;;;;;4.10;1.50;;;;;;;13.06;71.05;101441.76;102732;276;104075;-57
2023/05/18 06:38:41;;;;;;;6.30;1.40;;;;;;;13.21;70.44;101444.27;102714;276;114778;-57
2023/05/18 06:41:23;;;;;;;6.20;1.40;;;;;;;13.17;69.54;101445.04;102752;276;95129;-53
2023/05/18 06:44:04;;;;;;;6.30;1.40;;;;;;;13.27;69.14;101446.06;102763;276;97604;-53
2023/05/18 06:46:43;;;;;;;3.10;1.10;;;;;;;13.43;68.97;101447.67;102819;276;120814;-54
2023/05/18 06:49:25;;;;;;;3.50;0.90;;;;;;;13.59;68.51;101449.66;102742;276;105335;-53
2023/05/18 06:52:08;;;;;;;5.50;1.20;;;;;;;13.82;67.73;101451.66;102787;276;114561;-53
2023/05/18 06:54:49;;;;;;;5.30;1.30;;;;;;;13.84;67.33;101450.11;102758;276;93610;-57
2023/05/18 06:57:33;;;;;;;4.70;1.40;;;;;;;13.95;66.86;101452.55;102806;276;95748;-58
2023/05/18 07:00:11;;;;;;;2.80;0.90;;;;;;;13.96;66.32;101452.52;102556;278;121936;-53
2023/05/18 07:02:53;;;;;;;3.50;0.90;;;;;;;14.05;66.31;101451.83;102798;276;105044;-54
2023/05/18 07:05:42;;;;;;;5.20;2.40;;;;;;;14.10;65.87;101457.23;102739;276;113449;-57
2023/05/18 07:08:30;;;;;;;4.40;1.10;;;;;;;14.07;65.06;101455.25;102787;276;95152;-57
2023/05/18 07:11:08;;;;;;;4.40;1.10;;;;;;;13.98;65.13;101459.78;102837;276;97413;-55
2023/05/18 07:13:46;;;;;;;4.30;1.10;;;;;;;14.10;64.73;101458.17;102827;276;119182;-53
2023/05/18 07:16:26;;;;;;;4.70;1.00;;;;;;;14.17;64.02;101460.73;102870;276;104638;-55
2023/05/18 07:19:12;;;;;;;3.30;1.10;;;;;;;14.07;64.62;101458.64;102792;276;113581;-55
2023/05/18 07:21:48;;;;;;;3.60;1.00;;;;;;;14.10;64.60;101457.77;102794;276;94782;-55
2023/05/18 07:24:29;;;;;;;3.40;1.20;;;;;;;14.16;64.62;101458.64;102816;276;96317;-57
2023/05/18 07:27:12;;;;;;;3.00;0.80;;;;;;;14.31;64.27;101464.64;102778;276;119376;-55
2023/05/18 07:29:52;;;;;;;2.70;1.10;;;;;;;14.30;63.50;101467.09;102829;276;103260;-56
2023/05/18 07:32:37;;;;;;;5.00;1.00;;;;;;;14.26;63.21;101470.67;102777;276;113826;-58
2023/05/18 07:35:18;;;;;;;3.20;1.00;;;;;;;14.18;62.74;101471.66;102754;276;94748;-56
2023/05/18 07:37:59;;;;;;;6.10;1.30;;;;;;;14.09;63.30;101474.17;102809;276;98039;-56
2023/05/18 07:40:40;;;;;;;1.70;1.10;;;;;;;14.32;62.96;101475.03;102770;265;120956;-57
2023/05/18 07:43:20;;;;;;;2.80;0.90;;;;;;;14.26;62.58;101477.76;102809;276;105010;-57
2023/05/18 07:45:57;;;;;;;2.50;1.00;;;;;;;14.53;62.24;101477.46;102837;276;113180;-54
2023/05/18 07:48:39;;;;;;;4.40;1.10;;;;;;;14.76;61.99;101480.64;102791;276;94694;-54
2023/05/18 07:51:15;;;;;;;5.30;1.10;;;;;;;15.05;62.05;101476.95;102809;276;96473;-53
2023/05/18 07:53:56;;;;;;;3.60;1.00;;;;;;;15.23;61.40;101478.06;102779;276;120617;-54
2023/05/18 07:56:39;;;;;;;4.80;1.60;;;;;;;15.59;61.47;101478.98;102834;276;104005;-54
2023/05/18 07:59:26;;;;;;;2.20;0.90;;;;;;;15.83;61.53;101480.54;102847;276;114558;-54
2023/05/18 08:02:15;;;;;;;2.90;0.80;;;;;;;16.18;61.13;101480.52;102816;276;93083;-52
2023/05/18 08:04:53;;;;;;;3.30;0.80;;;;;;;16.74;60.72;101478.97;102589;276;97881;-53
2023/05/18 08:07:32;;;;;;;3.70;0.90;;;;;;;17.03;59.47;101478.75;102871;276;119988;-54
2023/05/18 08:10:20;;;;;;;3.80;0.90;;;;;;;17.22;59.42;101479.69;102572;276;105938;-58
2023/05/18 08:13:09;;;;;;;5.50;1.00;;;;;;;17.41;58.50;101482.20;102829;276;114741;-56
2023/05/18 08:15:53;;;;;;;2.30;0.70;;;;;;;17.59;57.31;101481.38;102820;276;94254;-57
2023/05/18 08:18:35;;;;;;;2.00;0.70;;;;;;;17.57;57.04;101485.84;102859;276;96852;-56
2023/05/18 08:21:15;;;;;;;1.70;0.80;;;;;;;17.59;57.21;101488.25;102841;276;119759;-61
2023/05/18 08:24:09;;;;;;;2.00;1.10;;;;;;;17.61;56.82;101486.26;102869;276;105459;-59
2023/05/18 08:26:50;;;;;;;2.70;1.10;;;;;;;17.82;56.51;101481.09;102560;278;114605;-57
2023/05/18 08:29:30;;;;;;;1.00;0.70;;;;;;;17.96;56.65;101478.98;102820;276;95116;-52
2023/05/18 08:32:07;;;;;;;2.00;0.90;;;;;;;17.86;56.16;101478.36;102790;276;98177;-53
2023/05/18 08:34:50;;;;;;;3.10;1.10;;;;;;;17.73;56.17;101484.38;102807;276;120621;-53
2023/05/18 08:37:36;;;;;;;2.20;0.90;;;;;;;17.59;54.69;101487.55;102825;276;103844;-54
2023/05/18 08:40:12;;;;;;;2.80;1.00;;;;;;;17.48;54.92;101494.84;102754;276;114111;-54
2023/05/18 08:43:05;;;;;;;2.80;0.90;;;;;;;17.64;54.03;101491.01;102770;276;93721;-54
2023/05/18 08:45:55;;;;;;;3.50;0.90;;;;;;;17.52;54.42;101489.42;102812;276;96094;-52
2023/05/18 08:48:39;;;;;;;3.20;1.00;;;;;;;17.23;54.62;101491.54;102769;276;121037;-53
2023/05/18 08:51:23;;;;;;;4.40;0.80;;;;;;;17.30;54.33;101487.70;102796;276;105773;-57
2023/05/18 08:54:06;;;;;;;3.10;0.80;;;;;;;17.23;54.16;101489.27;102788;276;114759;-54
2023/05/18 08:56:43;;;;;;;4.30;1.00;;;;;;;17.05;54.78;101486.83;102818;276;95035;-54
2023/05/18 08:59:24;;;;;;;5.90;1.90;;;;;;;16.98;55.06;101484.50;102806;276;96393;-57
2023/05/18 09:02:03;;;;;;;4.50;1.90;;;;;;;16.96;54.49;101484.31;102810;276;121649;-57
2023/05/18 09:04:41;;;;;;;3.30;1.90;;;;;;;16.88;54.26;101487.80;102801;276;105307;-57
2023/05/18 09:07:18;;;;;;;2.30;0.90;;;;;;;16.55;54.55;101484.70;102811;276;115115;-57
2023/05/18 09:09:59;;;;;;;4.10;1.70;;;;;;;16.42;54.98;101493.27;102767;276;94533;-57
2023/05/18 09:12:42;;;;;;;2.90;1.30;;;;;;;16.57;54.69;101494.63;102805;276;97748;-56
2023/05/18 09:15:26;;;;;;;3.80;1.00;;;;;;;16.73;54.96;101488.46;102816;276;121034;-58
2023/05/18 09:18:11;;;;;;;3.00;0.90;;;;;;;16.79;54.57;101492.95;102856;276;104522;-57
2023/05/18 09:20:53;;;;;;;2.40;1.00;;;;;;;16.67;54.74;101497.07;102795;276;114413;-57
2023/05/18 09:23:32;;;;;;;3.70;0.80;;;;;;;16.33;54.37;101499.58;102529;278;95370;-57
2023/05/18 09:26:12;;;;;;;2.30;1.00;;;;;;;16.17;54.47;101498.12;102847;276;97022;-54
2023/05/18 09:28:58;;;;;;;2.70;1.00;;;;;;;16.08;54.63;101499.27;102578;276;120285;-54
2023/05/18 09:31:42;;;;;;;2.90;1.00;;;;;;;16.05;55.10;101495.55;102841;276;104932;-54
2023/05/18 09:34:20;;;;;;;3.00;1.00;;;;;;;15.94;55.03;101498.67;102820;276;113700;-53
2023/05/18 09:37:00;;;;;;;3.20;1.30;;;;;;;16.11;55.17;101502.48;102828;276;94245;-53
2023/05/18 09:39:37;;;;;;;1.70;0.90;;;;;;;16.11;55.20;101500.73;102818;276;98365;-54
2023/05/18 09:42:20;;;;;;;3.60;1.10;;;;;;;16.02;55.14;101502.21;102757;276;119685;-55
2023/05/18 09:44:57;;;;;;;4.50;1.10;;;;;;;15.86;54.81;101507.33;102776;276;104524;-54
2023/05/18 09:47:41;;;;;;;2.10;0.80;;;;;;;15.88;54.49;101504.73;102815;276;112913;-53
2023/05/18 09:50:23;;;;;;;3.40;1.10;;;;;;;16.16;54.26;101499.67;102785;276;95769;-57
2023/05/18 09:53:07;;;;;;;3.70;1.40;;;;;;;16.25;54.33;101501.88;102762;276;96801;-57
2023/05/18 09:55:53;;;;;;;2.80;1.50;;;;;;;16.40;54.10;101498.79;102727;276;121361;-61
2023/05/18 09:58:37;;;;;;;3.30;1.30;;;;;;;16.69;54.70;101499.43;102730;276;104753;-61
2023/05/18 10:01:19;;;;;;;2.10;0.80;;;;;;;16.72;54.74;101501.68;102699;276;114037;-56
2023/05/18 10:04:05;;;;;;;3.20;0.90;;;;;;;16.69;54.67;101502.17;102732;276;93992;-53
2023/05/18 10:06:50;;;;;;;2.60;1.40;;;;;;;16.48;54.74;101506.89;102778;276;98420;-54
2023/05/18 10:09:36;;;;;;;4.40;1.10;;;;;;;16.19;54.95;101501.13;102709;276;120885;-57
2023/05/18 10:12:21;;;;;;;3.40;0.90;;;;;;;16.22;55.11;101497.27;102712;276;105988;-58
2023/05/18 10:15:08;;;;;;;1.90;0.50;;;;;;;16.38;54.72;101491.67;102715;276;114648;-57
2023/05/18 10:17:55;;;;;;;1.50;0.80;;;;;;;16.61;54.25;101491.08;102710;276;95145;-57
2023/05/18 10:20:44;;;;;;;4.10;1.20;;;;;;;16.69;54.59;101493.73;102824;276;96949;-58
2023/05/18 10:23:20;;;;;;;2.00;0.70;;;;;;;16.57;54.68;101491.98;102777;276;120445;-57
2023/05/18 10:26:00;;;;;;;4.40;1.20;;;;;;;16.76;55.04;101488.44;102823;276;105154;-54
2023/05/18 10:28:50;;;;;;;2.00;0.70;;;;;;;17.05;55.08;101488.35;102790;276;113360;-56
2023/05/18 10:31:30;;;;;;;3.80;1.00;;;;;;;17.11;55.16;101483.77;102791;276;95237;-57
2023/05/18 10:34:20;;;;;;;1.70;0.80;;;;;;;17.02;54.60;101487.98;102796;276;98204;-54
2023/05/18 10:37:05;;;;;;;3.30;0.70;;;;;;;17.12;54.17;101485.07;102795;276;120745;-53
2023/05/18 10:39:51;;;;;;;2.50;0.60;;;;;;;16.97;54.16;101484.15;102842;276;105375;-54
2023/05/18 10:42:37;;;;;;;2.30;1.10;;;;;;;16.92;53.90;101481.48;102818;276;113858;-54
2023/05/18 10:45:16;;;;;;;4.20;0.70;;;;;;;16.71;53.72;101478.00;102799;276;92900;-53
2023/05/18 10:47:58;;;;;;;1.10;0.50;;;;;;;16.81;53.80;101483.63;102791;276;96903;-53
2023/05/18 10:50:48;;;;;;;1.30;0.50;;;;;;;16.77;53.29;101480.67;102880;276;119283;-54
2023/05/18 10:53:26;;;;;;;3.80;0.80;;;;;;;16.77;53.82;101485.28;102916;276;105848;-53
2023/05/18 10:56:07;;;;;;;3.60;0.70;;;;;;;16.73;54.04;101482.80;102830;276;114695;-58
2023/05/18 10:58:47;;;;;;;1.20;0.70;;;;;;;16.82;53.90;101486.23;102849;276;92943;-54
2023/05/18 11:01:30;;;;;;;1.30;0.50;;;;;;;17.03;53.58;101480.25;102820;276;97833;-54
2023/05/18 11:04:10;;;;;;;5.90;0.80;;;;;;;17.15;53.27;101477.79;102846;276;120506;-54
2023/05/18 11:06:57;;;;;;;1.80;0.80;;;;;;;17.19;52.21;101483.41;102810;276;105610;-53
2023/05/18 11:09:39;;;;;;;2.70;0.60;;;;;;;17.12;51.88;101475.71;102854;276;115109;-52
2023/05/18 11:12:27;;;;;;;3.20;0.60;;;;;;;16.96;52.23;101478.39;102840;276;93492;-53
2023/05/18 11:15:14;;;;;;;3.20;0.80;;;;;;;16.94;52.99;101482.96;102808;276;98537;-54
2023/05/18 11:18:17;;;;;;;1.80;0.70;;;;;;;17.06;52.20;101477.96;102791;276;120611;-53
2023/05/18 11:21:01;;;;;;;1.70;0.60;;;;;;;17.13;52.18;101477.15;102817;276;105783;-53
2023/05/18 11:23:43;;;;;;;1.80;0.60;;;;;;;17.19;52.07;101479.47;102823;276;114083;-54
2023/05/18 11:26:38;;;;;;;5.50;1.00;;;;;;;17.26;51.93;101478.52;102744;276;95122;-53
2023/05/18 11:29:34;;;;;;;5.60;1.50;;;;;;;17.32;51.84;101474.12;102781;276;96503;-53
2023/05/18 11:32:36;;;;;;;3.70;0.90;;;;;;;17.29;51.62;101472.94;102770;276;120824;-54
2023/05/18 11:35:27;;;;;;;7.80;1.90;;;;;;;17.40;51.69;101474.64;102771;276;104773;-57
2023/05/18 11:38:11;;;;;;;2.00;1.00;;;;;;;17.23;51.98;101471.91;102773;276;115203;-57
2023/05/18 11:40:59;;;;;;;4.40;1.40;;;;;;;17.06;52.52;101470.50;102784;276;93761;-61
2023/05/18 11:43:41;;;;;;;3.00;0.70;;;;;;;17.20;52.02;101472.91;102798;265;99209;-56
2023/05/18 11:46:29;;;;;;;6.20;0.90;;;;;;;17.30;51.01;101474.20;102793;276;121225;-53
2023/05/18 11:49:23;;;;;;;4.60;0.80;;;;;;;17.07;51.16;101477.54;102766;276;106077;-54
2023/05/18 11:52:14;;;;;;;1.20;0.40;;;;;;;16.99;51.09;101475.67;102763;276;114080;-55
2023/05/18 11:54:52;;;;;;;1.40;0.60;;;;;;;17.04;51.39;101472.92;102783;276;95102;-58
2023/05/18 11:57:40;;;;;;;4.30;0.60;;;;;;;17.18;51.68;101473.88;102782;276;97778;-56
2023/05/18 12:00:24;;;;;;;5.10;1.10;;;;;;;17.06;51.12;101479.23;102756;276;119813;-59
2023/05/18 12:03:10;;;;;;;4.00;1.20;;;;;;;17.00;51.23;101473.36;102821;276;105319;-58
2023/05/18 12:05:50;;;;;;;2.10;0.90;;;;;;;16.96;51.21;101475.23;102779;276;114466;-58
2023/05/18 12:08:42;;;;;;;3.80;1.20;;;;;;;16.85;51.50;101476.53;102793;276;94340;-58
2023/05/18 12:11:25;;;;;;;5.70;1.60;;;;;;;16.80;51.51;101484.04;102824;276;97411;-57
2023/05/18 12:14:11;;;;;;;1.70;0.70;;;;;;;16.74;51.67;101481.96;102769;276;120226;-54
2023/05/18 12:16:55;;;;;;;3.30;0.90;;;;;;;16.68;51.66;101477.17;102781;276;106316;-55
2023/05/18 12:19:39;;;;;;;2.00;0.60;;;;;;;16.60;52.33;101478.90;102809;276;114961;-57
2023/05/18 12:22:17;;;;;;;2.00;0.50;;;;;;;16.51;53.04;101474.64;102794;276;93344;-57
2023/05/18 12:24:56;;;;;;;1.90;0.80;;;;;;;16.38;53.21;101478.59;102810;276;96869;-54
2023/05/18 12:27:37;;;;;;;2.70;1.00;;;;;;;16.45;53.44;101480.98;102790;276;121150;-53
2023/05/18 12:30:18;;;;;;;2.60;0.80;;;;;;;16.59;53.27;101477.73;102848;276;105847;-54